Time;durP1;ratioP1;P1;durP2;ratioP2;P2;SDS_P1;SDS_P2;PMS_P1;PMS_P2;Temp;Humidity;BMP_temperature;BMP_pressure;BME280_temperature;BME280_humidity;BME280_pressure;Samples;Min_cycle;Max_cycle;Signal;HPM_P1;HPM_P2
2021/12/19 00:01:55;;;;;;;27.80;14.87;;;5.40;99.90;;;;;;5011092;28;20458;-71
2021/12/19 00:04:28;;;;;;;24.87;13.37;;;5.40;99.90;;;;;;5012805;28;20450;-71
2021/12/19 00:09:40;;;;;;;29.57;14.90;;;5.40;99.90;;;;;;5012310;28;20501;-71
2021/12/19 00:12:07;;;;;;;28.77;14.80;;;5.40;99.90;;;;;;5012848;28;20516;-71
2021/12/19 00:14:34;;;;;;;25.80;13.87;;;5.40;99.90;;;;;;5012275;28;20462;-72
2021/12/19 00:17:00;;;;;;;25.67;14.17;;;5.40;99.90;;;;;;5006514;28;20498;-71
2021/12/19 00:19:27;;;;;;;26.13;13.80;;;5.40;99.90;;;;;;4992973;28;20475;-71
2021/12/19 00:21:55;;;;;;;28.10;15.00;;;5.40;99.90;;;;;;4992836;28;20509;-72
2021/12/19 00:24:24;;;;;;;26.60;13.00;;;5.40;99.90;;;;;;4992693;28;21070;-72
2021/12/19 00:26:51;;;;;;;27.40;13.77;;;5.40;99.90;;;;;;5007838;28;20520;-71
2021/12/19 00:29:17;;;;;;;24.70;13.90;;;5.40;99.90;;;;;;5011602;28;21055;-71
2021/12/19 00:31:45;;;;;;;23.13;13.23;;;5.30;99.90;;;;;;5011779;28;20488;-71
2021/12/19 00:34:12;;;;;;;25.30;13.90;;;5.40;99.90;;;;;;5005544;28;20464;-71
2021/12/19 00:36:39;;;;;;;25.87;13.90;;;5.40;99.90;;;;;;4992106;28;20450;-71
2021/12/19 00:39:07;;;;;;;22.10;11.83;;;5.40;99.90;;;;;;5007861;28;20528;-71
2021/12/19 00:41:34;;;;;;;26.03;14.27;;;5.40;99.90;;;;;;5011820;28;20479;-71
2021/12/19 00:44:09;;;;;;;18.70;12.23;;;5.40;99.90;;;;;;5011529;28;20449;-71
2021/12/19 00:46:43;;;;;;;20.53;11.13;;;5.40;99.90;;;;;;5004975;28;20489;-71
2021/12/19 00:49:10;;;;;;;21.17;10.50;;;5.40;99.90;;;;;;5011674;28;21202;-71
2021/12/19 00:51:37;;;;;;;16.10;10.17;;;5.40;99.90;;;;;;5012244;28;20507;-71
2021/12/19 00:54:09;;;;;;;17.37;10.50;;;5.40;99.90;;;;;;5011999;28;20906;-71
2021/12/19 00:56:38;;;;;;;16.33;10.33;;;5.40;99.90;;;;;;5012225;28;20458;-71
2021/12/19 00:59:04;;;;;;;14.40;9.70;;;5.40;99.90;;;;;;5012022;28;20466;-71
2021/12/19 01:01:32;;;;;;;15.37;10.10;;;5.40;99.90;;;;;;5005327;28;20458;-71
2021/12/19 01:03:58;;;;;;;16.00;10.27;;;5.40;99.90;;;;;;5011789;28;20512;-71
2021/12/19 01:06:27;;;;;;;21.40;10.17;;;5.40;99.90;;;;;;5011617;28;20458;-71
2021/12/19 01:08:55;;;;;;;14.17;9.23;;;5.30;99.90;;;;;;5012810;28;20548;-71
2021/12/19 01:11:22;;;;;;;14.73;9.80;;;5.30;99.90;;;;;;5015832;28;20508;-71
2021/12/19 01:13:50;;;;;;;14.30;9.43;;;5.30;99.90;;;;;;5015072;28;20473;-71
2021/12/19 01:16:18;;;;;;;14.60;9.60;;;5.30;99.90;;;;;;5014686;28;20450;-72
2021/12/19 01:18:45;;;;;;;11.60;8.57;;;5.30;99.90;;;;;;5015489;28;20483;-71
2021/12/19 01:21:12;;;;;;;12.80;9.30;;;5.20;99.90;;;;;;5015564;28;20472;-71
2021/12/19 01:23:38;;;;;;;12.53;9.43;;;5.20;99.90;;;;;;5015376;28;20881;-71
2021/12/19 01:26:05;;;;;;;9.90;8.37;;;5.30;99.90;;;;;;5014786;28;20879;-71
2021/12/19 01:28:32;;;;;;;14.93;9.60;;;5.20;99.90;;;;;;5014871;28;20544;-71
2021/12/19 01:31:00;;;;;;;11.97;9.13;;;5.20;99.90;;;;;;5014659;28;20902;-71
2021/12/19 01:33:27;;;;;;;11.97;8.97;;;5.20;99.90;;;;;;5015449;28;20524;-71
2021/12/19 01:35:54;;;;;;;11.80;9.00;;;5.10;99.90;;;;;;5006304;28;20546;-71
2021/12/19 01:38:21;;;;;;;12.27;8.37;;;5.10;99.90;;;;;;5004657;28;20478;-71
2021/12/19 01:40:47;;;;;;;11.33;8.17;;;5.10;99.90;;;;;;5013052;28;20512;-71
2021/12/19 01:43:14;;;;;;;9.17;7.33;;;5.10;99.90;;;;;;5014377;28;20512;-71
2021/12/19 01:45:42;;;;;;;12.10;9.03;;;5.00;99.90;;;;;;5014479;28;20461;-73
2021/12/19 01:48:12;;;;;;;13.10;8.90;;;5.00;99.90;;;;;;5014827;28;20875;-71
2021/12/19 01:50:40;;;;;;;13.07;9.90;;;5.00;99.90;;;;;;5015620;28;20485;-71
2021/12/19 01:53:10;;;;;;;10.67;8.80;;;5.00;99.90;;;;;;5014675;28;20450;-71
2021/12/19 01:55:37;;;;;;;12.60;9.27;;;5.00;99.90;;;;;;5013125;28;20458;-71
2021/12/19 01:58:04;;;;;;;14.90;10.33;;;5.00;99.90;;;;;;4995587;28;20474;-71
2021/12/19 02:00:34;;;;;;;12.53;9.60;;;5.00;99.90;;;;;;5010280;28;20474;-72
2021/12/19 02:03:01;;;;;;;11.60;9.00;;;4.90;99.90;;;;;;5014050;28;21012;-71
2021/12/19 02:05:29;;;;;;;10.87;8.50;;;5.00;99.90;;;;;;5014267;28;20553;-71
2021/12/19 02:07:58;;;;;;;13.37;8.97;;;5.00;99.90;;;;;;5013997;28;20547;-71
2021/12/19 02:10:26;;;;;;;11.13;8.27;;;5.00;99.90;;;;;;5014700;28;20485;-71
2021/12/19 02:12:54;;;;;;;10.63;7.90;;;4.90;99.90;;;;;;4999004;28;20459;-72
2021/12/19 02:15:23;;;;;;;13.20;8.73;;;5.00;99.90;;;;;;5005507;28;20516;-72
2021/12/19 02:17:53;;;;;;;12.23;9.40;;;4.90;99.90;;;;;;5004555;28;20474;-71
2021/12/19 02:20:22;;;;;;;12.67;9.03;;;4.90;99.90;;;;;;4994932;28;20506;-71
2021/12/19 02:22:50;;;;;;;12.83;8.70;;;4.80;99.90;;;;;;4994927;28;20470;-71
2021/12/19 02:25:17;;;;;;;11.57;8.20;;;4.80;99.90;;;;;;4994690;28;20447;-71
2021/12/19 02:27:44;;;;;;;11.93;9.07;;;4.80;99.90;;;;;;4995059;28;20809;-71
2021/12/19 02:30:13;;;;;;;12.00;8.67;;;4.90;99.90;;;;;;5006341;28;20582;-71
2021/12/19 02:32:41;;;;;;;13.33;8.73;;;4.90;99.90;;;;;;5013577;28;20878;-71
2021/12/19 02:35:12;;;;;;;10.93;8.10;;;4.90;99.90;;;;;;5014334;28;20458;-71
2021/12/19 02:38:07;;;;;;;11.07;8.33;;;5.00;99.90;;;;;;5014246;28;20482;-71
2021/12/19 02:48:09;;;;;;;10.93;7.83;;;5.00;99.90;;;;;;5013852;28;20978;-71
2021/12/19 02:48:56;;;;;;;13.83;8.80;;;5.00;99.90;;;;;;5013951;28;20894;-71
2021/12/19 02:51:23;;;;;;;11.27;7.83;;;5.00;99.90;;;;;;5014198;28;20547;-71
2021/12/19 02:53:52;;;;;;;12.20;8.23;;;5.00;99.90;;;;;;5012546;28;20473;-71
2021/12/19 02:56:20;;;;;;;13.37;8.50;;;5.00;99.90;;;;;;5014126;28;20454;-71
2021/12/19 02:58:46;;;;;;;11.43;8.27;;;5.00;99.90;;;;;;5013862;28;20513;-71
2021/12/19 03:01:17;;;;;;;9.97;7.27;;;5.00;99.90;;;;;;5010398;28;20483;-71
2021/12/19 03:03:44;;;;;;;12.00;7.67;;;5.00;99.90;;;;;;4994218;28;20458;-71
2021/12/19 03:06:11;;;;;;;13.33;7.50;;;5.00;99.90;;;;;;5012036;28;20462;-71
2021/12/19 03:08:43;;;;;;;9.77;7.03;;;5.00;99.90;;;;;;5013561;28;20490;-71
2021/12/19 03:11:45;;;;;;;10.00;7.40;;;5.00;99.90;;;;;;5013531;28;20485;-71
2021/12/19 03:19:36;;;;;;;12.80;7.80;;;5.00;99.90;;;;;;4994479;28;20473;-71
2021/12/19 03:22:03;;;;;;;10.50;7.53;;;5.10;99.90;;;;;;4993644;28;20455;-71
2021/12/19 03:24:30;;;;;;;9.30;6.90;;;5.10;99.90;;;;;;4993802;28;20947;-71
2021/12/19 03:26:58;;;;;;;10.40;6.10;;;5.10;99.90;;;;;;4993655;28;20455;-71
2021/12/19 03:29:25;;;;;;;11.30;7.00;;;5.10;99.90;;;;;;4995401;28;20479;-71
2021/12/19 03:31:51;;;;;;;16.07;7.70;;;5.10;99.90;;;;;;5012475;28;20841;-72
2021/12/19 03:34:18;;;;;;;10.50;6.60;;;5.10;99.90;;;;;;5013407;28;20609;-71
2021/12/19 03:36:45;;;;;;;8.83;6.00;;;5.10;99.90;;;;;;4998109;28;20459;-71
2021/12/19 03:39:25;;;;;;;15.77;7.20;;;5.10;99.90;;;;;;4999990;28;20545;-72
2021/12/19 03:41:54;;;;;;;12.77;8.00;;;5.10;99.90;;;;;;5000640;28;20465;-71
2021/12/19 03:44:23;;;;;;;10.17;6.90;;;5.10;99.90;;;;;;5012250;28;20481;-71
2021/12/19 03:46:50;;;;;;;13.73;7.00;;;5.10;99.90;;;;;;5012223;28;20507;-71
2021/12/19 03:49:19;;;;;;;13.80;7.17;;;5.10;99.90;;;;;;5012617;28;20470;-71
2021/12/19 03:51:46;;;;;;;10.50;7.27;;;5.10;99.90;;;;;;5012411;28;21118;-71
2021/12/19 03:54:12;;;;;;;15.63;7.93;;;5.10;99.90;;;;;;5012618;28;20864;-72
2021/12/19 03:56:39;;;;;;;11.93;7.47;;;5.10;99.90;;;;;;5012663;28;20477;-72
2021/12/19 03:59:06;;;;;;;13.87;7.70;;;5.10;99.90;;;;;;5012407;28;20910;-72
2021/12/19 04:01:34;;;;;;;12.20;7.23;;;5.20;99.90;;;;;;5005182;28;20451;-72
2021/12/19 04:04:01;;;;;;;11.63;7.40;;;5.20;99.90;;;;;;4992911;28;20466;-72
2021/12/19 04:06:28;;;;;;;12.47;7.53;;;5.20;99.90;;;;;;4992941;28;20470;-72
2021/12/19 04:08:56;;;;;;;11.80;7.37;;;5.20;99.90;;;;;;4992765;28;20570;-72
2021/12/19 04:11:24;;;;;;;11.43;7.33;;;5.20;99.90;;;;;;4992931;28;20490;-72
2021/12/19 04:13:51;;;;;;;14.30;6.97;;;5.10;99.90;;;;;;4994589;28;20935;-72
2021/12/19 04:16:17;;;;;;;11.37;7.80;;;5.10;99.90;;;;;;5011974;28;20454;-72
2021/12/19 04:18:45;;;;;;;11.50;7.20;;;5.10;99.90;;;;;;5012518;28;20524;-72
2021/12/19 04:21:12;;;;;;;13.97;7.63;;;5.20;99.90;;;;;;5012598;28;20493;-72
2021/12/19 04:23:40;;;;;;;16.00;7.90;;;5.20;99.90;;;;;;5011007;28;20481;-71
2021/12/19 04:26:07;;;;;;;15.90;7.33;;;5.20;99.90;;;;;;4992530;28;21001;-72
2021/12/19 04:28:34;;;;;;;15.70;7.60;;;5.20;99.90;;;;;;4992746;28;20483;-72
2021/12/19 04:31:02;;;;;;;10.87;7.17;;;5.20;99.90;;;;;;5010254;28;20485;-72
2021/12/19 04:33:29;;;;;;;11.90;7.60;;;5.20;99.90;;;;;;5012624;28;20458;-71
2021/12/19 04:36:01;;;;;;;12.10;7.20;;;5.20;99.90;;;;;;5011766;28;20561;-72
2021/12/19 04:39:09;;;;;;;11.90;7.37;;;5.20;99.90;;;;;;5011442;28;20489;-72
2021/12/19 04:42:00;;;;;;;11.80;7.10;;;5.20;99.90;;;;;;5009419;28;20438;-72
2021/12/19 04:58:49;;;;;;;16.10;7.67;;;5.30;99.90;;;;;;5009387;28;20481;-72
2021/12/19 05:01:38;;;;;;;13.40;7.83;;;5.30;99.90;;;;;;5011188;28;20790;-72
2021/12/19 05:04:13;;;;;;;17.10;8.77;;;5.30;99.90;;;;;;5011836;28;20434;-72
2021/12/19 05:14:06;;;;;;;15.57;8.33;;;5.30;99.90;;;;;;5011310;28;20500;-72
2021/12/19 05:15:24;;;;;;;17.53;9.00;;;5.30;99.90;;;;;;4986119;28;20740;-92
2021/12/19 05:25:58;;;;;;;16.30;8.13;;;5.20;99.90;;;;;;5046702;22;20529;-68
2021/12/19 05:28:25;;;;;;;13.40;8.63;;;5.30;99.90;;;;;;5011269;28;20524;-69
2021/12/19 05:30:52;;;;;;;16.53;8.53;;;5.30;99.90;;;;;;5024598;28;20534;-69
2021/12/19 05:33:19;;;;;;;16.83;8.20;;;5.30;99.90;;;;;;5031178;28;20450;-69
2021/12/19 05:36:04;;;;;;;19.17;9.13;;;5.30;99.90;;;;;;5023852;28;20478;-69
2021/12/19 05:45:11;;;;;;;14.37;9.10;;;5.30;99.90;;;;;;5038027;28;21110;-69
2021/12/19 05:46:58;;;;;;;19.30;8.90;;;5.30;99.90;;;;;;5030140;28;20980;-69
2021/12/19 05:49:25;;;;;;;18.83;9.73;;;5.30;99.90;;;;;;5030596;28;20477;-69
2021/12/19 05:51:51;;;;;;;17.00;8.97;;;5.30;99.90;;;;;;5030738;28;20551;-69
2021/12/19 05:54:18;;;;;;;20.03;9.47;;;5.30;99.90;;;;;;5030127;28;20518;-69
2021/12/19 05:56:48;;;;;;;15.97;8.13;;;5.30;99.90;;;;;;5034194;28;20510;-68
2021/12/19 05:59:15;;;;;;;17.47;9.70;;;5.30;99.90;;;;;;5033890;28;20469;-68
2021/12/19 06:01:42;;;;;;;17.07;9.00;;;5.30;99.90;;;;;;5033758;28;20484;-68
2021/12/19 06:04:09;;;;;;;20.00;10.67;;;5.30;99.90;;;;;;5034441;28;20461;-68
2021/12/19 06:06:36;;;;;;;20.47;9.57;;;5.30;99.90;;;;;;5024717;28;20457;-70
2021/12/19 06:09:03;;;;;;;20.20;11.00;;;5.30;99.90;;;;;;5014345;28;20466;-70
2021/12/19 06:11:30;;;;;;;20.07;11.20;;;5.30;99.90;;;;;;5020482;28;20485;-69
2021/12/19 06:13:58;;;;;;;16.50;10.13;;;5.40;99.90;;;;;;5033804;28;20479;-70
2021/12/19 06:16:24;;;;;;;23.23;10.37;;;5.40;99.90;;;;;;5033253;28;20460;-70
2021/12/19 06:18:51;;;;;;;24.27;10.87;;;5.40;99.90;;;;;;5033966;28;20469;-69
2021/12/19 06:21:18;;;;;;;22.37;11.70;;;5.40;99.90;;;;;;5033780;28;20480;-70
2021/12/19 06:23:44;;;;;;;22.00;11.20;;;5.40;99.90;;;;;;5033743;28;20503;-69
2021/12/19 06:26:11;;;;;;;24.83;12.03;;;5.40;99.90;;;;;;5033140;28;20464;-70
2021/12/19 06:28:39;;;;;;;22.83;11.07;;;5.40;99.90;;;;;;5033854;28;20609;-68
2021/12/19 06:31:07;;;;;;;24.73;12.10;;;5.40;99.90;;;;;;5033030;28;20543;-68
2021/12/19 06:33:34;;;;;;;26.60;12.33;;;5.40;99.90;;;;;;5033723;28;20449;-69
2021/12/19 06:36:00;;;;;;;28.30;13.20;;;5.40;99.90;;;;;;5032923;28;20453;-69
2021/12/19 06:38:27;;;;;;;22.43;11.80;;;5.50;99.90;;;;;;5041322;28;20471;-68
2021/12/19 06:40:54;;;;;;;27.20;12.77;;;5.50;99.90;;;;;;5045528;28;20449;-68
2021/12/19 06:43:21;;;;;;;32.53;13.63;;;5.50;99.90;;;;;;5046819;28;20485;-68
2021/12/19 06:45:48;;;;;;;29.50;15.90;;;5.50;99.90;;;;;;5032794;28;20516;-68
2021/12/19 06:48:16;;;;;;;29.23;13.47;;;5.50;99.90;;;;;;5033315;28;20516;-68
2021/12/19 06:50:43;;;;;;;30.60;14.27;;;5.50;99.90;;;;;;5013332;28;20446;-68
2021/12/19 06:53:09;;;;;;;27.73;14.17;;;5.50;99.90;;;;;;5013302;28;20496;-68
2021/12/19 06:55:37;;;;;;;27.60;13.30;;;5.50;99.90;;;;;;5012508;28;20465;-69
2021/12/19 06:58:04;;;;;;;31.67;13.90;;;5.50;99.90;;;;;;5013540;28;20474;-69
2021/12/19 07:00:30;;;;;;;29.50;14.20;;;5.50;99.90;;;;;;5032440;28;20450;-69
2021/12/19 07:02:57;;;;;;;25.77;13.20;;;5.50;99.90;;;;;;5033040;28;20499;-69
2021/12/19 07:05:25;;;;;;;33.50;14.33;;;5.50;99.90;;;;;;5032584;28;20520;-69
2021/12/19 07:07:52;;;;;;;32.60;14.20;;;5.60;99.90;;;;;;5023583;28;20888;-69
2021/12/19 07:10:19;;;;;;;30.73;14.10;;;5.60;99.90;;;;;;5013123;28;20461;-67
2021/12/19 07:12:45;;;;;;;29.53;14.57;;;5.60;99.90;;;;;;5022709;28;21086;-72
2021/12/19 07:15:14;;;;;;;29.00;14.80;;;5.60;99.90;;;;;;5032278;28;20484;-68
2021/12/19 07:17:41;;;;;;;33.87;15.13;;;5.60;99.90;;;;;;5032621;28;20453;-69
2021/12/19 07:20:08;;;;;;;32.63;15.80;;;5.60;99.90;;;;;;5032543;28;20449;-69
2021/12/19 07:22:36;;;;;;;31.80;15.73;;;5.60;99.90;;;;;;5031817;28;20445;-69
2021/12/19 07:25:03;;;;;;;30.67;15.20;;;5.60;99.90;;;;;;5031690;28;20556;-72
2021/12/19 07:27:30;;;;;;;37.70;16.23;;;5.60;99.90;;;;;;5031774;28;20953;-70
2021/12/19 07:29:57;;;;;;;29.33;14.93;;;5.60;99.90;;;;;;5017540;28;20473;-69
2021/12/19 07:32:25;;;;;;;30.00;14.80;;;5.60;99.90;;;;;;5031651;28;20473;-69
2021/12/19 07:34:51;;;;;;;32.07;14.47;;;5.60;99.90;;;;;;5031346;28;20472;-68
2021/12/19 07:37:19;;;;;;;31.97;15.67;;;5.60;99.90;;;;;;5018158;28;20508;-69
2021/12/19 07:39:55;;;;;;;35.70;15.70;;;5.70;99.90;;;;;;5052194;28;20484;-69
2021/12/19 07:42:22;;;;;;;36.17;15.97;;;5.70;99.90;;;;;;5051100;28;20514;-69
2021/12/19 07:44:48;;;;;;;33.63;15.90;;;5.70;99.90;;;;;;5051389;28;20448;-69
2021/12/19 07:47:15;;;;;;;31.10;14.03;;;5.70;99.90;;;;;;5052050;28;20508;-69
2021/12/19 07:49:42;;;;;;;32.50;14.73;;;5.70;99.90;;;;;;5050784;28;20472;-69
2021/12/19 07:52:09;;;;;;;27.27;12.07;;;5.70;99.90;;;;;;5029674;28;20538;-71
2021/12/19 07:54:35;;;;;;;30.63;13.90;;;5.80;99.90;;;;;;5030190;28;20453;-73
2021/12/19 07:57:04;;;;;;;34.37;15.03;;;6.10;99.90;;;;;;5030459;28;20465;-73
2021/12/19 07:59:30;;;;;;;31.13;15.53;;;6.80;99.90;;;;;;5029521;28;20481;-73
2021/12/19 08:01:57;;;;;;;29.17;14.97;;;7.10;99.90;;;;;;5028360;28;20453;-73
2021/12/19 08:04:24;;;;;;;31.17;15.43;;;7.30;99.90;;;;;;5030776;28;20604;-71
2021/12/19 08:06:50;;;;;;;27.40;14.23;;;7.40;99.90;;;;;;5030743;28;20536;-74
2021/12/19 08:09:25;;;;;;;27.47;14.10;;;7.40;99.90;;;;;;5031120;28;21054;-74
2021/12/19 08:11:51;;;;;;;28.63;14.70;;;7.20;99.90;;;;;;5030945;28;20528;-74
2021/12/19 08:14:19;;;;;;;30.63;14.57;;;6.90;99.90;;;;;;5030721;28;20484;-71
2021/12/19 08:16:47;;;;;;;30.53;14.33;;;6.70;99.90;;;;;;5030959;28;21014;-71
2021/12/19 08:19:14;;;;;;;28.30;14.27;;;6.40;99.90;;;;;;5030574;28;20481;-74
2021/12/19 08:21:41;;;;;;;28.20;14.73;;;6.30;99.90;;;;;;5031755;28;20452;-73
2021/12/19 08:24:11;;;;;;;29.93;13.63;;;6.30;99.90;;;;;;5031650;28;20468;-75
2021/12/19 08:26:40;;;;;;;33.70;15.53;;;6.20;99.90;;;;;;5030640;28;20960;-74
2021/12/19 08:29:06;;;;;;;27.87;13.63;;;6.20;99.90;;;;;;5028713;28;20540;-76
2021/12/19 08:31:35;;;;;;;28.10;14.00;;;6.10;99.90;;;;;;5031424;28;20539;-75
2021/12/19 08:34:02;;;;;;;35.80;15.30;;;6.10;99.90;;;;;;5031590;28;20457;-76
2021/12/19 08:36:28;;;;;;;37.13;16.07;;;6.10;99.90;;;;;;5031229;28;20511;-75
2021/12/19 08:38:55;;;;;;;28.93;14.73;;;6.10;99.90;;;;;;5017210;28;20887;-76
2021/12/19 08:41:22;;;;;;;29.90;14.27;;;6.10;99.90;;;;;;5025064;28;20453;-75
2021/12/19 08:43:48;;;;;;;30.33;14.63;;;6.20;99.90;;;;;;5030774;28;20816;-75
2021/12/19 08:46:15;;;;;;;34.83;15.87;;;6.20;99.90;;;;;;5030903;28;20508;-75
2021/12/19 08:48:44;;;;;;;34.47;15.00;;;6.20;99.90;;;;;;5030878;28;20469;-74
2021/12/19 08:51:11;;;;;;;30.33;12.93;;;6.20;99.90;;;;;;5031330;28;20449;-74
2021/12/19 08:53:39;;;;;;;27.73;14.23;;;6.20;99.90;;;;;;5030105;28;20461;-74
2021/12/19 08:56:05;;;;;;;31.63;15.17;;;6.20;99.90;;;;;;5030023;28;20461;-74
2021/12/19 08:58:32;;;;;;;29.00;13.90;;;6.20;99.90;;;;;;5032349;28;20473;-71
2021/12/19 09:01:01;;;;;;;34.60;16.07;;;6.30;99.90;;;;;;5030910;28;20474;-72
2021/12/19 09:03:29;;;;;;;29.53;14.00;;;6.30;99.90;;;;;;5031406;28;20449;-75
2021/12/19 09:05:57;;;;;;;36.30;16.20;;;6.30;99.90;;;;;;5033164;28;20453;-75
2021/12/19 09:08:24;;;;;;;34.80;14.00;;;6.30;99.90;;;;;;5035215;28;20473;-75
2021/12/19 09:10:52;;;;;;;33.07;15.00;;;6.30;99.90;;;;;;5033690;28;20460;-76
2021/12/19 09:13:18;;;;;;;36.97;16.13;;;6.30;99.90;;;;;;5033229;28;20576;-74
2021/12/19 09:15:45;;;;;;;34.17;16.10;;;6.30;99.90;;;;;;5031909;28;20584;-75
2021/12/19 09:18:12;;;;;;;34.47;16.43;;;6.40;99.90;;;;;;5031119;28;20476;-76
2021/12/19 09:20:39;;;;;;;31.20;15.37;;;6.40;99.90;;;;;;5032679;28;20865;-76
2021/12/19 09:23:08;;;;;;;36.47;16.50;;;6.50;99.90;;;;;;5031376;28;20450;-75
2021/12/19 09:25:36;;;;;;;36.87;17.37;;;6.50;99.90;;;;;;5031631;28;20461;-76
2021/12/19 09:28:02;;;;;;;35.77;16.90;;;6.60;99.90;;;;;;5030979;28;20531;-75
2021/12/19 09:30:29;;;;;;;38.30;16.93;;;6.60;99.90;;;;;;5032858;28;20503;-75
2021/12/19 09:32:56;;;;;;;32.47;14.40;;;6.70;99.90;;;;;;5034385;28;20573;-75
2021/12/19 09:35:23;;;;;;;30.20;14.77;;;6.70;99.90;;;;;;5034370;28;20453;-73
2021/12/19 09:37:50;;;;;;;30.37;15.70;;;6.80;99.90;;;;;;5025337;28;20453;-73
2021/12/19 09:40:21;;;;;;;28.87;14.80;;;6.80;99.90;;;;;;5028296;28;20471;-73
2021/12/19 09:42:51;;;;;;;28.17;13.60;;;6.70;99.90;;;;;;5025431;28;20459;-76
2021/12/19 09:45:19;;;;;;;30.17;14.00;;;6.80;99.90;;;;;;5024406;28;20557;-75
2021/12/19 09:47:46;;;;;;;30.70;15.00;;;6.80;99.90;;;;;;5034920;28;20940;-75
2021/12/19 09:50:14;;;;;;;27.73;13.47;;;6.90;99.90;;;;;;5035193;28;20453;-77
2021/12/19 09:52:41;;;;;;;25.37;12.00;;;6.90;99.90;;;;;;5035949;28;20495;-74
2021/12/19 09:55:08;;;;;;;26.23;13.70;;;7.00;99.90;;;;;;5037016;28;20461;-73
2021/12/19 09:57:37;;;;;;;26.03;13.00;;;7.00;99.90;;;;;;5038414;28;20456;-74
2021/12/19 10:00:05;;;;;;;27.00;13.60;;;6.90;99.90;;;;;;5039006;28;20462;-73
2021/12/19 10:02:32;;;;;;;24.57;12.30;;;7.00;99.90;;;;;;5040944;28;20476;-74
2021/12/19 10:05:13;;;;;;;26.27;13.10;;;7.00;99.90;;;;;;5038468;28;20859;-75
2021/12/19 10:07:47;;;;;;;28.47;14.43;;;7.00;99.90;;;;;;5037301;28;20442;-75
2021/12/19 10:10:24;;;;;;;27.30;13.23;;;7.20;99.90;;;;;;5037704;28;20456;-76
2021/12/19 10:12:57;;;;;;;28.63;13.60;;;7.30;99.90;;;;;;5036015;28;20484;-76
2021/12/19 10:15:29;;;;;;;30.40;13.10;;;7.50;99.90;;;;;;5038109;28;20453;-75
2021/12/19 10:18:02;;;;;;;30.40;12.97;;;7.50;99.90;;;;;;5035712;28;20488;-74
2021/12/19 10:20:41;;;;;;;25.53;12.77;;;7.50;99.90;;;;;;5036011;28;20453;-75
2021/12/19 10:23:11;;;;;;;27.37;12.83;;;7.80;99.90;;;;;;5036009;28;20449;-75
2021/12/19 10:25:38;;;;;;;26.33;12.80;;;7.80;99.90;;;;;;5034169;28;20500;-74
2021/12/19 10:28:09;;;;;;;25.70;12.30;;;8.00;99.90;;;;;;5032989;28;20527;-75
2021/12/19 10:30:38;;;;;;;24.83;13.23;;;8.00;99.90;;;;;;5033523;28;20545;-75
2021/12/19 10:33:06;;;;;;;25.53;13.50;;;8.00;99.90;;;;;;5034992;28;20501;-75
2021/12/19 10:35:34;;;;;;;26.10;13.40;;;7.90;99.90;;;;;;5033789;28;20451;-76
2021/12/19 10:38:03;;;;;;;29.87;14.40;;;7.90;99.90;;;;;;5033228;28;20587;-75
2021/12/19 10:40:30;;;;;;;27.60;13.23;;;7.70;99.90;;;;;;5031822;28;20515;-75
2021/12/19 10:43:02;;;;;;;25.63;12.43;;;7.60;99.90;;;;;;5033028;28;20449;-75
2021/12/19 10:45:35;;;;;;;28.87;13.50;;;7.50;99.90;;;;;;5027019;28;20529;-76
2021/12/19 10:48:22;;;;;;;32.30;14.37;;;7.60;99.90;;;;;;5032913;28;20483;-75
2021/12/19 10:50:52;;;;;;;31.53;14.90;;;7.50;99.90;;;;;;5032899;28;20527;-75
2021/12/19 10:53:19;;;;;;;29.77;14.60;;;7.50;99.90;;;;;;5032526;28;20543;-75
2021/12/19 10:55:49;;;;;;;28.60;13.83;;;7.40;99.90;;;;;;5031904;28;20515;-75
2021/12/19 10:58:27;;;;;;;32.47;13.83;;;7.30;99.90;;;;;;5032917;28;20477;-74
2021/12/19 11:01:13;;;;;;;31.17;14.93;;;7.30;99.90;;;;;;5031728;28;20549;-75
2021/12/19 11:03:58;;;;;;;31.57;14.07;;;7.30;99.90;;;;;;5026437;28;20446;-75
2021/12/19 11:06:33;;;;;;;31.53;15.30;;;7.30;99.90;;;;;;5029690;28;20468;-73
2021/12/19 11:09:02;;;;;;;31.90;15.27;;;7.40;99.90;;;;;;5046139;22;20500;-93
2021/12/19 11:11:35;;;;;;;36.47;15.93;;;7.40;99.90;;;;;;5034687;28;20458;-92
2021/12/19 11:14:03;;;;;;;32.50;15.40;;;7.30;99.90;;;;;;5034865;28;20477;-91
2021/12/19 11:16:32;;;;;;;33.80;13.87;;;7.40;99.90;;;;;;5035609;28;20464;-91
2021/12/19 11:18:59;;;;;;;37.33;15.33;;;7.40;99.90;;;;;;5037129;28;20461;-92
2021/12/19 11:21:27;;;;;;;35.80;16.17;;;7.40;99.90;;;;;;5044294;28;20445;-95
2021/12/19 11:23:53;;;;;;;36.57;15.93;;;7.40;99.90;;;;;;5056417;28;20444;-94
2021/12/19 11:26:21;;;;;;;35.40;15.07;;;7.50;99.90;;;;;;5046666;28;20449;-91
2021/12/19 11:28:49;;;;;;;35.50;15.93;;;7.60;99.90;;;;;;5034348;28;20454;-91
2021/12/19 11:31:16;;;;;;;33.17;15.47;;;7.60;99.90;;;;;;5033915;28;20832;-92
2021/12/19 11:34:02;;;;;;;34.83;15.50;;;7.70;99.90;;;;;;5033807;28;20480;-91
2021/12/19 11:36:35;;;;;;;36.70;16.60;;;7.50;99.90;;;;;;5034128;28;20453;-92
2021/12/19 11:39:05;;;;;;;41.73;16.40;;;7.50;99.90;;;;;;5034009;28;20448;-92
2021/12/19 11:41:32;;;;;;;34.93;16.33;;;7.50;99.90;;;;;;5034238;28;20429;-92
2021/12/19 11:44:02;;;;;;;37.27;16.33;;;7.50;99.90;;;;;;5033458;28;20460;-92
2021/12/19 11:46:47;;;;;;;37.37;15.77;;;7.50;99.90;;;;;;5033537;28;20452;-92
2021/12/19 11:49:20;;;;;;;34.23;16.20;;;7.40;99.90;;;;;;5033677;28;20855;-92
2021/12/19 11:51:47;;;;;;;34.93;16.00;;;7.40;99.90;;;;;;5035156;28;20515;-92
2021/12/19 11:54:16;;;;;;;36.20;16.57;;;7.40;99.90;;;;;;5034702;28;20485;-91
2021/12/19 11:57:08;;;;;;;29.47;15.00;;;7.50;99.90;;;;;;5033321;28;20457;-91
2021/12/19 11:59:36;;;;;;;32.50;15.47;;;7.40;99.90;;;;;;5047601;28;20504;-92
2021/12/19 12:02:22;;;;;;;29.50;14.10;;;7.30;99.90;;;;;;5040173;28;20942;-92
2021/12/19 12:05:25;;;;;;;28.73;14.13;;;7.40;99.90;;;;;;5033871;28;20450;-91
2021/12/19 12:08:17;;;;;;;35.47;16.00;;;7.40;99.90;;;;;;5033426;28;20821;-92
2021/12/19 12:11:10;;;;;;;28.93;14.83;;;7.30;99.90;;;;;;5018306;28;20473;-92
2021/12/19 12:13:39;;;;;;;27.80;13.93;;;7.40;99.90;;;;;;5032780;28;21012;-92
2021/12/19 12:16:35;;;;;;;26.93;15.07;;;7.30;99.90;;;;;;5032779;28;20804;-91
2021/12/19 12:19:04;;;;;;;26.30;14.30;;;7.30;99.90;;;;;;5024076;28;20465;-92
2021/12/19 12:21:40;;;;;;;31.00;15.37;;;7.30;99.90;;;;;;5055404;28;20471;-96
2021/12/19 12:24:08;;;;;;;28.87;14.90;;;7.30;99.90;;;;;;5057080;28;20449;-95
2021/12/19 12:26:41;;;;;;;28.87;15.00;;;7.20;99.90;;;;;;5056708;28;20456;-94
2021/12/19 12:29:08;;;;;;;24.20;13.10;;;7.20;99.90;;;;;;5056958;28;20452;-95
2021/12/19 12:31:36;;;;;;;25.17;12.83;;;7.30;99.90;;;;;;5056591;28;20447;-94
2021/12/19 12:34:07;;;;;;;23.70;13.67;;;7.20;99.90;;;;;;5057713;28;20465;-93
2021/12/19 12:36:36;;;;;;;20.70;11.70;;;7.20;99.90;;;;;;5041973;28;20429;-91
2021/12/19 12:39:08;;;;;;;25.80;14.47;;;7.20;99.90;;;;;;5018276;28;20465;-92
2021/12/19 12:41:47;;;;;;;24.13;12.73;;;7.20;99.90;;;;;;5013457;28;20451;-92
2021/12/19 12:44:16;;;;;;;23.40;12.23;;;7.20;99.90;;;;;;5013497;28;20828;-91
2021/12/19 12:46:43;;;;;;;23.50;11.50;;;7.20;99.90;;;;;;5013240;28;20470;-92
2021/12/19 12:49:11;;;;;;;19.23;11.13;;;7.20;99.90;;;;;;5013113;28;20462;-91
2021/12/19 12:51:41;;;;;;;18.93;11.07;;;7.20;99.90;;;;;;5012850;28;20459;-91
2021/12/19 12:54:11;;;;;;;17.50;10.13;;;7.20;99.90;;;;;;5012895;28;20478;-91
2021/12/19 12:56:43;;;;;;;17.93;10.00;;;7.20;99.90;;;;;;5012526;28;20458;-92
2021/12/19 12:59:11;;;;;;;18.33;10.43;;;7.10;99.90;;;;;;5016465;28;20457;-92
2021/12/19 13:01:43;;;;;;;21.70;10.33;;;7.10;99.90;;;;;;5033537;28;20464;-92
2021/12/19 13:04:19;;;;;;;17.80;10.37;;;7.10;99.90;;;;;;5038072;28;20456;-92
2021/12/19 13:06:57;;;;;;;18.77;10.73;;;7.10;99.90;;;;;;5033778;28;20492;-92
2021/12/19 13:32:32;;;;;;;23.60;11.63;;;7.10;99.90;;;;;;5040863;28;20448;-91
2021/12/19 13:35:01;;;;;;;19.77;11.27;;;7.00;99.90;;;;;;5039702;28;20459;-92
2021/12/19 13:37:32;;;;;;;21.50;10.80;;;7.00;99.90;;;;;;5027719;28;20789;-91
2021/12/19 13:40:11;;;;;;;24.37;12.50;;;6.90;99.90;;;;;;5035989;28;20544;-91
2021/12/19 13:42:51;;;;;;;23.40;11.87;;;6.90;99.90;;;;;;5033998;28;20982;-91
2021/12/19 13:45:28;;;;;;;24.97;12.03;;;6.90;99.90;;;;;;5016857;28;20460;-91
2021/12/19 13:47:59;;;;;;;26.37;13.03;;;7.00;99.90;;;;;;5024045;28;20544;-91
2021/12/19 13:50:26;;;;;;;26.20;12.93;;;7.00;99.90;;;;;;5026021;28;20485;-92
2021/12/19 13:52:53;;;;;;;27.33;13.93;;;7.00;99.90;;;;;;5025511;28;20461;-91
2021/12/19 13:55:20;;;;;;;24.27;13.60;;;7.00;99.90;;;;;;5027500;28;20449;-90
2021/12/19 13:57:47;;;;;;;29.50;14.60;;;7.00;99.90;;;;;;5027105;28;20445;-91
2021/12/19 14:00:31;;;;;;;27.73;13.70;;;7.00;99.90;;;;;;5044376;28;20460;-91
2021/12/19 14:02:59;;;;;;;27.30;14.60;;;6.90;99.90;;;;;;5060176;28;20476;-93
2021/12/19 14:05:40;;;;;;;25.33;14.60;;;6.80;99.90;;;;;;5057460;28;20493;-91